sensor_id;sensor_type;location;lat;lon;timestamp;temperature;humidity
578;DHT22;275;48.492;9.214;2023-04-25T00:00:55;13.20;30.20
578;DHT22;275;48.492;9.214;2023-04-25T00:03:23;13.20;30.00
578;DHT22;275;48.492;9.214;2023-04-25T00:05:50;13.20;30.30
578;DHT22;275;48.492;9.214;2023-04-25T00:08:18;13.10;30.50
578;DHT22;275;48.492;9.214;2023-04-25T00:10:46;12.70;31.40
578;DHT22;275;48.492;9.214;2023-04-25T00:13:14;12.60;32.00
578;DHT22;275;48.492;9.214;2023-04-25T00:15:43;12.60;32.10
578;DHT22;275;48.492;9.214;2023-04-25T00:18:11;12.80;31.30
578;DHT22;275;48.492;9.214;2023-04-25T00:20:38;12.90;31.30
578;DHT22;275;48.492;9.214;2023-04-25T00:23:05;13.10;30.30
578;DHT22;275;48.492;9.214;2023-04-25T00:25:33;13.20;30.00
578;DHT22;275;48.492;9.214;2023-04-25T00:28:01;13.40;29.70
578;DHT22;275;48.492;9.214;2023-04-25T00:30:28;13.40;29.70
578;DHT22;275;48.492;9.214;2023-04-25T00:32:54;13.50;29.80
578;DHT22;275;48.492;9.214;2023-04-25T00:35:21;13.40;30.10
578;DHT22;275;48.492;9.214;2023-04-25T00:37:48;13.40;30.10
578;DHT22;275;48.492;9.214;2023-04-25T00:40:15;13.50;30.00
578;DHT22;275;48.492;9.214;2023-04-25T00:42:42;13.50;30.00
578;DHT22;275;48.492;9.214;2023-04-25T00:45:13;13.30;30.00
578;DHT22;275;48.492;9.214;2023-04-25T00:47:41;13.20;30.30
578;DHT22;275;48.492;9.214;2023-04-25T00:50:08;13.40;30.10
578;DHT22;275;48.492;9.214;2023-04-25T00:52:36;13.30;30.10
578;DHT22;275;48.492;9.214;2023-04-25T00:55:05;13.40;30.20
578;DHT22;275;48.492;9.214;2023-04-25T00:57:31;13.50;30.20
578;DHT22;275;48.492;9.214;2023-04-25T00:59:59;13.40;30.00
578;DHT22;275;48.492;9.214;2023-04-25T01:02:27;13.30;30.00
578;DHT22;275;48.492;9.214;2023-04-25T01:04:55;13.30;30.00
578;DHT22;275;48.492;9.214;2023-04-25T01:07:22;13.40;29.80
578;DHT22;275;48.492;9.214;2023-04-25T01:09:49;13.40;29.90
578;DHT22;275;48.492;9.214;2023-04-25T01:12:17;13.40;29.90
578;DHT22;275;48.492;9.214;2023-04-25T01:14:44;13.50;29.70
578;DHT22;275;48.492;9.214;2023-04-25T01:17:12;13.40;29.80
578;DHT22;275;48.492;9.214;2023-04-25T01:19:42;13.50;30.00
578;DHT22;275;48.492;9.214;2023-04-25T01:22:10;13.20;30.30
578;DHT22;275;48.492;9.214;2023-04-25T01:24:37;13.20;30.50
578;DHT22;275;48.492;9.214;2023-04-25T01:27:04;13.10;30.60
578;DHT22;275;48.492;9.214;2023-04-25T01:29:32;13.10;30.60
578;DHT22;275;48.492;9.214;2023-04-25T01:31:59;12.90;31.00
578;DHT22;275;48.492;9.214;2023-04-25T01:34:26;12.00;33.20
578;DHT22;275;48.492;9.214;2023-04-25T01:36:53;11.70;33.80
578;DHT22;275;48.492;9.214;2023-04-25T01:39:22;11.50;34.70
578;DHT22;275;48.492;9.214;2023-04-25T01:41:49;11.70;34.30
578;DHT22;275;48.492;9.214;2023-04-25T01:44:16;11.50;34.70
578;DHT22;275;48.492;9.214;2023-04-25T01:46:43;11.50;34.80
578;DHT22;275;48.492;9.214;2023-04-25T01:49:10;11.60;34.70
578;DHT22;275;48.492;9.214;2023-04-25T01:51:36;11.90;33.80
578;DHT22;275;48.492;9.214;2023-04-25T01:54:04;12.10;33.40
578;DHT22;275;48.492;9.214;2023-04-25T01:56:32;12.20;33.20
578;DHT22;275;48.492;9.214;2023-04-25T01:58:59;11.70;34.60
578;DHT22;275;48.492;9.214;2023-04-25T02:01:26;11.60;34.90
578;DHT22;275;48.492;9.214;2023-04-25T02:03:53;11.40;35.30
578;DHT22;275;48.492;9.214;2023-04-25T02:06:20;11.80;34.90
578;DHT22;275;48.492;9.214;2023-04-25T02:08:47;11.70;34.50
578;DHT22;275;48.492;9.214;2023-04-25T02:11:14;11.80;34.80
578;DHT22;275;48.492;9.214;2023-04-25T02:13:42;12.00;33.70
578;DHT22;275;48.492;9.214;2023-04-25T02:16:09;11.60;34.70
578;DHT22;275;48.492;9.214;2023-04-25T02:18:35;11.80;34.60
578;DHT22;275;48.492;9.214;2023-04-25T02:21:04;11.30;35.40
578;DHT22;275;48.492;9.214;2023-04-25T02:23:31;10.90;36.00
578;DHT22;275;48.492;9.214;2023-04-25T02:25:58;11.10;35.60
578;DHT22;275;48.492;9.214;2023-04-25T02:28:25;11.10;36.10
578;DHT22;275;48.492;9.214;2023-04-25T02:30:53;11.00;36.30
578;DHT22;275;48.492;9.214;2023-04-25T02:33:20;11.30;35.80
578;DHT22;275;48.492;9.214;2023-04-25T02:35:47;11.70;34.70
578;DHT22;275;48.492;9.214;2023-04-25T02:38:14;12.00;33.90
578;DHT22;275;48.492;9.214;2023-04-25T02:40:41;12.30;33.30
578;DHT22;275;48.492;9.214;2023-04-25T02:43:08;12.40;33.00
578;DHT22;275;48.492;9.214;2023-04-25T02:45:34;12.30;33.30
578;DHT22;275;48.492;9.214;2023-04-25T02:48:03;12.20;33.50
578;DHT22;275;48.492;9.214;2023-04-25T02:50:30;11.80;34.50
578;DHT22;275;48.492;9.214;2023-04-25T02:52:57;11.70;34.80
578;DHT22;275;48.492;9.214;2023-04-25T02:55:24;11.50;35.50
578;DHT22;275;48.492;9.214;2023-04-25T02:57:51;11.50;35.90
578;DHT22;275;48.492;9.214;2023-04-25T03:00:20;11.40;35.70
578;DHT22;275;48.492;9.214;2023-04-25T03:02:47;11.10;37.10
578;DHT22;275;48.492;9.214;2023-04-25T03:05:15;11.30;36.10
578;DHT22;275;48.492;9.214;2023-04-25T03:07:43;11.20;36.40
578;DHT22;275;48.492;9.214;2023-04-25T03:10:11;11.10;36.10
578;DHT22;275;48.492;9.214;2023-04-25T03:12:38;11.10;36.20
578;DHT22;275;48.492;9.214;2023-04-25T03:15:06;10.90;36.80
578;DHT22;275;48.492;9.214;2023-04-25T03:17:32;11.20;36.30
578;DHT22;275;48.492;9.214;2023-04-25T03:20:00;11.10;36.00
578;DHT22;275;48.492;9.214;2023-04-25T03:22:28;10.40;37.60
578;DHT22;275;48.492;9.214;2023-04-25T03:24:55;10.40;37.70
578;DHT22;275;48.492;9.214;2023-04-25T03:27:22;10.50;37.60
578;DHT22;275;48.492;9.214;2023-04-25T03:29:49;10.80;36.90
578;DHT22;275;48.492;9.214;2023-04-25T03:32:15;11.20;36.10
578;DHT22;275;48.492;9.214;2023-04-25T03:34:42;11.70;34.60
578;DHT22;275;48.492;9.214;2023-04-25T03:37:09;11.90;33.90
578;DHT22;275;48.492;9.214;2023-04-25T03:39:37;11.90;33.90
578;DHT22;275;48.492;9.214;2023-04-25T03:42:04;12.10;33.60
578;DHT22;275;48.492;9.214;2023-04-25T03:44:31;12.10;33.50
578;DHT22;275;48.492;9.214;2023-04-25T03:46:58;12.30;33.30
578;DHT22;275;48.492;9.214;2023-04-25T03:49:24;12.20;33.60
578;DHT22;275;48.492;9.214;2023-04-25T03:51:51;12.10;33.20
578;DHT22;275;48.492;9.214;2023-04-25T03:54:18;11.90;33.70
578;DHT22;275;48.492;9.214;2023-04-25T03:56:47;11.90;33.70
578;DHT22;275;48.492;9.214;2023-04-25T03:59:14;11.70;34.20
578;DHT22;275;48.492;9.214;2023-04-25T04:01:41;11.70;33.80
578;DHT22;275;48.492;9.214;2023-04-25T04:04:08;11.70;34.20
578;DHT22;275;48.492;9.214;2023-04-25T04:06:34;11.70;34.30
578;DHT22;275;48.492;9.214;2023-04-25T04:09:02;11.70;34.50
578;DHT22;275;48.492;9.214;2023-04-25T04:11:28;11.70;34.40
578;DHT22;275;48.492;9.214;2023-04-25T04:13:58;11.60;34.10
578;DHT22;275;48.492;9.214;2023-04-25T04:16:25;11.30;34.80
578;DHT22;275;48.492;9.214;2023-04-25T04:18:52;11.50;34.60
578;DHT22;275;48.492;9.214;2023-04-25T04:21:19;11.50;34.60
578;DHT22;275;48.492;9.214;2023-04-25T04:23:45;11.60;34.40
578;DHT22;275;48.492;9.214;2023-04-25T04:26:13;11.60;34.30
578;DHT22;275;48.492;9.214;2023-04-25T04:28:42;11.50;34.80
578;DHT22;275;48.492;9.214;2023-04-25T04:31:10;11.30;35.40
578;DHT22;275;48.492;9.214;2023-04-25T04:33:38;11.30;35.00
578;DHT22;275;48.492;9.214;2023-04-25T04:36:05;11.50;34.90
578;DHT22;275;48.492;9.214;2023-04-25T04:38:33;11.70;34.10
578;DHT22;275;48.492;9.214;2023-04-25T04:41:00;12.20;33.20
578;DHT22;275;48.492;9.214;2023-04-25T04:43:27;12.30;32.90
578;DHT22;275;48.492;9.214;2023-04-25T04:45:54;12.40;32.50
578;DHT22;275;48.492;9.214;2023-04-25T04:48:24;12.20;32.90
578;DHT22;275;48.492;9.214;2023-04-25T04:50:51;11.70;33.50
578;DHT22;275;48.492;9.214;2023-04-25T04:53:18;11.80;33.80
578;DHT22;275;48.492;9.214;2023-04-25T04:55:45;11.90;33.50
578;DHT22;275;48.492;9.214;2023-04-25T04:58:12;11.50;34.30
578;DHT22;275;48.492;9.214;2023-04-25T05:00:38;11.40;34.50
578;DHT22;275;48.492;9.214;2023-04-25T05:03:05;11.10;35.10
578;DHT22;275;48.492;9.214;2023-04-25T05:05:33;10.80;36.10
578;DHT22;275;48.492;9.214;2023-04-25T05:08:00;11.20;35.20
578;DHT22;275;48.492;9.214;2023-04-25T05:10:27;11.20;35.10
578;DHT22;275;48.492;9.214;2023-04-25T05:12:54;11.30;35.30
578;DHT22;275;48.492;9.214;2023-04-25T05:15:21;11.20;35.20
578;DHT22;275;48.492;9.214;2023-04-25T05:17:47;11.20;35.40
578;DHT22;275;48.492;9.214;2023-04-25T05:20:14;11.70;34.10
578;DHT22;275;48.492;9.214;2023-04-25T05:22:42;12.10;33.40
578;DHT22;275;48.492;9.214;2023-04-25T05:25:09;12.30;33.00
578;DHT22;275;48.492;9.214;2023-04-25T05:27:36;12.60;32.80
578;DHT22;275;48.492;9.214;2023-04-25T05:30:04;12.80;32.40
578;DHT22;275;48.492;9.214;2023-04-25T05:32:31;12.90;32.50
578;DHT22;275;48.492;9.214;2023-04-25T05:34:58;13.10;32.70
578;DHT22;275;48.492;9.214;2023-04-25T05:37:25;13.00;32.60
578;DHT22;275;48.492;9.214;2023-04-25T05:39:53;12.50;33.80
578;DHT22;275;48.492;9.214;2023-04-25T05:42:20;12.30;34.40
578;DHT22;275;48.492;9.214;2023-04-25T05:44:46;12.80;33.90
578;DHT22;275;48.492;9.214;2023-04-25T05:47:13;13.20;32.20
578;DHT22;275;48.492;9.214;2023-04-25T05:49:40;12.60;33.90
578;DHT22;275;48.492;9.214;2023-04-25T05:52:07;12.90;33.50
578;DHT22;275;48.492;9.214;2023-04-25T05:54:34;13.10;33.30
578;DHT22;275;48.492;9.214;2023-04-25T05:57:02;13.20;31.80
578;DHT22;275;48.492;9.214;2023-04-25T05:59:29;12.80;32.60
578;DHT22;275;48.492;9.214;2023-04-25T06:01:56;12.90;33.40
578;DHT22;275;48.492;9.214;2023-04-25T06:04:22;13.30;32.40
578;DHT22;275;48.492;9.214;2023-04-25T06:06:49;13.40;31.50
578;DHT22;275;48.492;9.214;2023-04-25T06:09:16;13.50;31.30
578;DHT22;275;48.492;9.214;2023-04-25T06:11:43;14.00;30.50
578;DHT22;275;48.492;9.214;2023-04-25T06:14:11;14.30;29.50
578;DHT22;275;48.492;9.214;2023-04-25T06:16:38;14.40;28.70
578;DHT22;275;48.492;9.214;2023-04-25T06:19:05;14.40;29.20
578;DHT22;275;48.492;9.214;2023-04-25T06:21:31;14.30;29.10
578;DHT22;275;48.492;9.214;2023-04-25T06:23:58;13.80;29.50
578;DHT22;275;48.492;9.214;2023-04-25T06:26:25;13.20;30.90
578;DHT22;275;48.492;9.214;2023-04-25T06:28:52;13.20;31.00
578;DHT22;275;48.492;9.214;2023-04-25T06:31:20;13.30;30.80
578;DHT22;275;48.492;9.214;2023-04-25T06:33:47;13.30;30.80
578;DHT22;275;48.492;9.214;2023-04-25T06:36:14;12.00;33.20
578;DHT22;275;48.492;9.214;2023-04-25T06:38:41;11.60;35.30
578;DHT22;275;48.492;9.214;2023-04-25T06:41:08;11.90;34.50
578;DHT22;275;48.492;9.214;2023-04-25T06:43:35;12.20;33.80
578;DHT22;275;48.492;9.214;2023-04-25T06:46:02;12.50;32.80
578;DHT22;275;48.492;9.214;2023-04-25T06:48:30;12.80;32.10
578;DHT22;275;48.492;9.214;2023-04-25T06:50:57;13.10;31.00
578;DHT22;275;48.492;9.214;2023-04-25T06:53:23;13.30;30.10
578;DHT22;275;48.492;9.214;2023-04-25T06:55:50;12.90;30.90
578;DHT22;275;48.492;9.214;2023-04-25T06:58:17;12.80;30.80
578;DHT22;275;48.492;9.214;2023-04-25T07:00:44;12.60;31.20
578;DHT22;275;48.492;9.214;2023-04-25T07:03:11;12.40;32.20
578;DHT22;275;48.492;9.214;2023-04-25T07:05:39;12.20;33.10
578;DHT22;275;48.492;9.214;2023-04-25T07:08:06;12.80;32.40
578;DHT22;275;48.492;9.214;2023-04-25T07:10:33;13.20;31.80
578;DHT22;275;48.492;9.214;2023-04-25T07:13:00;13.50;30.90
578;DHT22;275;48.492;9.214;2023-04-25T07:15:27;13.40;30.60
578;DHT22;275;48.492;9.214;2023-04-25T07:17:53;13.30;31.60
578;DHT22;275;48.492;9.214;2023-04-25T07:20:20;13.30;33.30
578;DHT22;275;48.492;9.214;2023-04-25T07:22:48;13.20;32.70
578;DHT22;275;48.492;9.214;2023-04-25T07:25:15;12.70;33.50
578;DHT22;275;48.492;9.214;2023-04-25T07:27:42;12.50;34.70
578;DHT22;275;48.492;9.214;2023-04-25T07:30:10;12.80;34.40
578;DHT22;275;48.492;9.214;2023-04-25T07:32:38;12.90;34.80
578;DHT22;275;48.492;9.214;2023-04-25T07:35:05;12.90;34.00
578;DHT22;275;48.492;9.214;2023-04-25T07:37:33;12.60;35.90
578;DHT22;275;48.492;9.214;2023-04-25T07:40:02;12.60;36.10
578;DHT22;275;48.492;9.214;2023-04-25T07:42:30;12.90;36.60
578;DHT22;275;48.492;9.214;2023-04-25T07:44:57;13.00;36.60
578;DHT22;275;48.492;9.214;2023-04-25T07:47:24;12.80;35.60
578;DHT22;275;48.492;9.214;2023-04-25T07:49:51;12.70;36.70
578;DHT22;275;48.492;9.214;2023-04-25T07:52:18;12.60;36.00
578;DHT22;275;48.492;9.214;2023-04-25T07:54:45;12.60;35.10
578;DHT22;275;48.492;9.214;2023-04-25T07:57:14;12.80;35.00
578;DHT22;275;48.492;9.214;2023-04-25T07:59:42;12.80;35.60
578;DHT22;275;48.492;9.214;2023-04-25T08:02:09;12.30;37.50
578;DHT22;275;48.492;9.214;2023-04-25T08:04:36;12.40;37.60
578;DHT22;275;48.492;9.214;2023-04-25T08:07:03;12.70;38.20
578;DHT22;275;48.492;9.214;2023-04-25T08:09:29;13.00;36.50
578;DHT22;275;48.492;9.214;2023-04-25T08:12:00;13.20;36.20
578;DHT22;275;48.492;9.214;2023-04-25T08:14:30;13.20;36.20
578;DHT22;275;48.492;9.214;2023-04-25T08:17:01;13.30;37.00
578;DHT22;275;48.492;9.214;2023-04-25T08:19:28;13.10;36.40
578;DHT22;275;48.492;9.214;2023-04-25T08:21:55;13.00;37.40
578;DHT22;275;48.492;9.214;2023-04-25T08:24:22;13.10;36.50
578;DHT22;275;48.492;9.214;2023-04-25T08:26:49;13.00;37.20
578;DHT22;275;48.492;9.214;2023-04-25T08:29:16;12.80;37.50
578;DHT22;275;48.492;9.214;2023-04-25T08:31:44;12.90;38.00
578;DHT22;275;48.492;9.214;2023-04-25T08:34:11;13.00;38.50
578;DHT22;275;48.492;9.214;2023-04-25T08:36:39;12.80;37.90
578;DHT22;275;48.492;9.214;2023-04-25T08:39:06;12.40;37.90
578;DHT22;275;48.492;9.214;2023-04-25T08:41:33;11.50;39.60
578;DHT22;275;48.492;9.214;2023-04-25T08:44:01;11.50;41.10
578;DHT22;275;48.492;9.214;2023-04-25T08:46:30;11.70;40.50
578;DHT22;275;48.492;9.214;2023-04-25T08:49:01;11.80;39.90
578;DHT22;275;48.492;9.214;2023-04-25T08:51:31;11.40;40.90
578;DHT22;275;48.492;9.214;2023-04-25T08:54:07;11.30;41.80
578;DHT22;275;48.492;9.214;2023-04-25T08:56:35;11.70;41.00
578;DHT22;275;48.492;9.214;2023-04-25T08:59:02;11.40;41.10
578;DHT22;275;48.492;9.214;2023-04-25T09:01:29;10.80;42.90
578;DHT22;275;48.492;9.214;2023-04-25T09:03:58;10.90;41.70
578;DHT22;275;48.492;9.214;2023-04-25T09:06:25;11.20;41.50
578;DHT22;275;48.492;9.214;2023-04-25T09:08:53;11.50;40.60
578;DHT22;275;48.492;9.214;2023-04-25T09:11:20;10.90;41.50
578;DHT22;275;48.492;9.214;2023-04-25T09:13:46;10.80;42.00
578;DHT22;275;48.492;9.214;2023-04-25T09:16:13;11.10;40.90
578;DHT22;275;48.492;9.214;2023-04-25T09:18:42;11.50;41.10
578;DHT22;275;48.492;9.214;2023-04-25T09:21:11;11.50;41.40
578;DHT22;275;48.492;9.214;2023-04-25T09:23:40;11.20;40.70
578;DHT22;275;48.492;9.214;2023-04-25T09:26:08;11.00;42.10
578;DHT22;275;48.492;9.214;2023-04-25T09:28:35;11.10;40.40
578;DHT22;275;48.492;9.214;2023-04-25T09:31:03;10.90;41.30
578;DHT22;275;48.492;9.214;2023-04-25T09:33:31;10.90;41.90
578;DHT22;275;48.492;9.214;2023-04-25T09:36:03;10.80;43.30
578;DHT22;275;48.492;9.214;2023-04-25T09:38:32;11.00;42.70
578;DHT22;275;48.492;9.214;2023-04-25T09:40:59;10.40;44.70
578;DHT22;275;48.492;9.214;2023-04-25T09:43:27;9.60;45.80
578;DHT22;275;48.492;9.214;2023-04-25T09:45:54;9.00;46.40
578;DHT22;275;48.492;9.214;2023-04-25T09:48:26;8.50;49.00
578;DHT22;275;48.492;9.214;2023-04-25T09:51:06;8.20;48.90
578;DHT22;275;48.492;9.214;2023-04-25T09:53:36;8.00;50.40
578;DHT22;275;48.492;9.214;2023-04-25T09:56:04;8.10;50.70
578;DHT22;275;48.492;9.214;2023-04-25T09:58:32;8.60;50.20
578;DHT22;275;48.492;9.214;2023-04-25T10:01:00;8.60;49.10
578;DHT22;275;48.492;9.214;2023-04-25T10:03:29;8.40;50.00
578;DHT22;275;48.492;9.214;2023-04-25T10:05:58;8.60;50.30
578;DHT22;275;48.492;9.214;2023-04-25T10:08:31;8.90;50.10
578;DHT22;275;48.492;9.214;2023-04-25T10:11:01;8.90;49.40
578;DHT22;275;48.492;9.214;2023-04-25T10:13:29;8.60;49.60
578;DHT22;275;48.492;9.214;2023-04-25T10:15:57;8.60;50.50
578;DHT22;275;48.492;9.214;2023-04-25T10:18:25;8.40;49.20
578;DHT22;275;48.492;9.214;2023-04-25T10:20:54;7.90;51.50
578;DHT22;275;48.492;9.214;2023-04-25T10:23:21;7.80;52.30
578;DHT22;275;48.492;9.214;2023-04-25T10:25:49;7.80;54.00
578;DHT22;275;48.492;9.214;2023-04-25T10:28:18;7.90;53.50
578;DHT22;275;48.492;9.214;2023-04-25T10:30:57;8.30;52.80
578;DHT22;275;48.492;9.214;2023-04-25T10:33:32;9.00;50.20
578;DHT22;275;48.492;9.214;2023-04-25T10:36:08;8.60;50.20
578;DHT22;275;48.492;9.214;2023-04-25T10:38:36;8.60;49.20
578;DHT22;275;48.492;9.214;2023-04-25T10:41:04;8.30;48.50
578;DHT22;275;48.492;9.214;2023-04-25T10:43:37;8.30;49.60
578;DHT22;275;48.492;9.214;2023-04-25T10:46:22;8.00;50.40
578;DHT22;275;48.492;9.214;2023-04-25T10:48:51;8.80;48.30
578;DHT22;275;48.492;9.214;2023-04-25T10:51:20;8.90;45.40
578;DHT22;275;48.492;9.214;2023-04-25T10:53:57;9.20;45.50
578;DHT22;275;48.492;9.214;2023-04-25T10:56:26;8.70;46.10
578;DHT22;275;48.492;9.214;2023-04-25T10:59:05;8.40;47.10
578;DHT22;275;48.492;9.214;2023-04-25T11:01:36;7.40;49.40
578;DHT22;275;48.492;9.214;2023-04-25T11:04:05;6.90;53.00
578;DHT22;275;48.492;9.214;2023-04-25T11:06:42;7.00;52.90
578;DHT22;275;48.492;9.214;2023-04-25T11:09:13;7.70;50.20
578;DHT22;275;48.492;9.214;2023-04-25T11:11:40;8.30;49.20
578;DHT22;275;48.492;9.214;2023-04-25T11:14:08;7.70;49.60
578;DHT22;275;48.492;9.214;2023-04-25T11:16:35;7.30;49.80
578;DHT22;275;48.492;9.214;2023-04-25T11:19:02;7.00;50.60
578;DHT22;275;48.492;9.214;2023-04-25T11:21:30;7.30;50.90
578;DHT22;275;48.492;9.214;2023-04-25T11:23:59;7.40;51.10
578;DHT22;275;48.492;9.214;2023-04-25T11:26:26;7.70;50.10
578;DHT22;275;48.492;9.214;2023-04-25T11:28:57;7.80;48.60
578;DHT22;275;48.492;9.214;2023-04-25T11:31:26;8.20;48.20
578;DHT22;275;48.492;9.214;2023-04-25T11:33:53;7.90;49.10
578;DHT22;275;48.492;9.214;2023-04-25T11:36:22;7.80;49.00
578;DHT22;275;48.492;9.214;2023-04-25T11:38:50;7.80;50.00
578;DHT22;275;48.492;9.214;2023-04-25T11:41:17;8.20;47.30
578;DHT22;275;48.492;9.214;2023-04-25T11:43:44;8.00;47.00
578;DHT22;275;48.492;9.214;2023-04-25T11:46:11;8.20;47.40
578;DHT22;275;48.492;9.214;2023-04-25T11:48:40;8.00;48.70
578;DHT22;275;48.492;9.214;2023-04-25T11:51:07;7.70;50.10
578;DHT22;275;48.492;9.214;2023-04-25T11:53:34;7.60;48.50
578;DHT22;275;48.492;9.214;2023-04-25T11:56:01;8.00;49.50
578;DHT22;275;48.492;9.214;2023-04-25T11:58:56;8.20;48.50
578;DHT22;275;48.492;9.214;2023-04-25T12:01:28;7.90;48.50
578;DHT22;275;48.492;9.214;2023-04-25T12:03:57;8.80;45.80
578;DHT22;275;48.492;9.214;2023-04-25T12:06:26;9.10;44.90
578;DHT22;275;48.492;9.214;2023-04-25T12:09:04;9.00;45.40
578;DHT22;275;48.492;9.214;2023-04-25T12:11:31;8.90;47.80
578;DHT22;275;48.492;9.214;2023-04-25T12:14:02;9.00;47.00
578;DHT22;275;48.492;9.214;2023-04-25T12:16:30;9.00;46.30
578;DHT22;275;48.492;9.214;2023-04-25T12:19:07;9.30;46.00
578;DHT22;275;48.492;9.214;2023-04-25T12:21:34;9.20;44.70
578;DHT22;275;48.492;9.214;2023-04-25T12:24:11;9.60;45.60
578;DHT22;275;48.492;9.214;2023-04-25T12:26:47;10.30;43.00
578;DHT22;275;48.492;9.214;2023-04-25T12:29:19;10.80;42.70
578;DHT22;275;48.492;9.214;2023-04-25T12:31:46;11.20;41.10
578;DHT22;275;48.492;9.214;2023-04-25T12:34:15;11.10;39.80
578;DHT22;275;48.492;9.214;2023-04-25T12:36:42;11.40;40.90
578;DHT22;275;48.492;9.214;2023-04-25T12:39:14;11.70;39.80
578;DHT22;275;48.492;9.214;2023-04-25T12:41:41;12.30;38.20
578;DHT22;275;48.492;9.214;2023-04-25T12:44:08;11.50;39.30
578;DHT22;275;48.492;9.214;2023-04-25T12:46:35;10.90;40.30
578;DHT22;275;48.492;9.214;2023-04-25T12:49:03;11.10;41.10
578;DHT22;275;48.492;9.214;2023-04-25T12:51:31;11.70;39.40
578;DHT22;275;48.492;9.214;2023-04-25T12:53:58;12.10;39.60
578;DHT22;275;48.492;9.214;2023-04-25T12:56:25;12.10;38.20
578;DHT22;275;48.492;9.214;2023-04-25T12:58:53;12.50;38.50
578;DHT22;275;48.492;9.214;2023-04-25T13:01:19;12.90;36.90
578;DHT22;275;48.492;9.214;2023-04-25T13:03:46;13.10;35.50
578;DHT22;275;48.492;9.214;2023-04-25T13:06:14;12.90;36.50
578;DHT22;275;48.492;9.214;2023-04-25T13:08:42;12.80;36.30
578;DHT22;275;48.492;9.214;2023-04-25T13:11:09;12.20;38.40
578;DHT22;275;48.492;9.214;2023-04-25T13:13:37;12.00;38.90
578;DHT22;275;48.492;9.214;2023-04-25T13:16:06;12.40;37.50
578;DHT22;275;48.492;9.214;2023-04-25T13:18:33;12.60;37.70
578;DHT22;275;48.492;9.214;2023-04-25T13:21:00;11.90;39.20
578;DHT22;275;48.492;9.214;2023-04-25T13:23:28;11.20;42.10
578;DHT22;275;48.492;9.214;2023-04-25T13:25:57;11.40;41.50
578;DHT22;275;48.492;9.214;2023-04-25T13:28:24;11.50;40.30
578;DHT22;275;48.492;9.214;2023-04-25T13:30:51;12.00;40.10
578;DHT22;275;48.492;9.214;2023-04-25T13:33:18;13.10;37.70
578;DHT22;275;48.492;9.214;2023-04-25T13:35:46;13.50;36.70
578;DHT22;275;48.492;9.214;2023-04-25T13:38:19;13.60;36.50
578;DHT22;275;48.492;9.214;2023-04-25T13:40:46;14.00;35.70
578;DHT22;275;48.492;9.214;2023-04-25T13:43:14;14.30;33.60
578;DHT22;275;48.492;9.214;2023-04-25T13:45:41;14.60;31.90
578;DHT22;275;48.492;9.214;2023-04-25T13:48:08;14.70;32.10
578;DHT22;275;48.492;9.214;2023-04-25T13:50:35;15.30;30.70
578;DHT22;275;48.492;9.214;2023-04-25T13:53:02;15.30;30.30
578;DHT22;275;48.492;9.214;2023-04-25T13:55:29;15.20;30.80
578;DHT22;275;48.492;9.214;2023-04-25T13:57:55;14.70;31.50
578;DHT22;275;48.492;9.214;2023-04-25T14:00:24;13.90;33.90
578;DHT22;275;48.492;9.214;2023-04-25T14:02:51;14.20;34.00
578;DHT22;275;48.492;9.214;2023-04-25T14:05:19;14.10;33.10
578;DHT22;275;48.492;9.214;2023-04-25T14:07:45;13.80;34.00
578;DHT22;275;48.492;9.214;2023-04-25T14:10:12;14.40;33.00
578;DHT22;275;48.492;9.214;2023-04-25T14:12:39;14.80;32.10
578;DHT22;275;48.492;9.214;2023-04-25T14:15:06;14.90;32.10
578;DHT22;275;48.492;9.214;2023-04-25T14:17:34;15.30;30.80
578;DHT22;275;48.492;9.214;2023-04-25T14:20:01;14.80;30.90
578;DHT22;275;48.492;9.214;2023-04-25T14:22:31;14.50;32.40
578;DHT22;275;48.492;9.214;2023-04-25T14:24:57;15.30;30.60
578;DHT22;275;48.492;9.214;2023-04-25T14:27:25;15.60;30.00
578;DHT22;275;48.492;9.214;2023-04-25T14:29:52;15.60;30.40
578;DHT22;275;48.492;9.214;2023-04-25T14:32:18;15.90;29.70
578;DHT22;275;48.492;9.214;2023-04-25T14:34:47;15.60;29.80
578;DHT22;275;48.492;9.214;2023-04-25T14:37:14;15.50;29.80
578;DHT22;275;48.492;9.214;2023-04-25T14:39:41;15.30;29.70
578;DHT22;275;48.492;9.214;2023-04-25T14:42:08;15.10;29.60
578;DHT22;275;48.492;9.214;2023-04-25T14:44:36;14.40;31.30
578;DHT22;275;48.492;9.214;2023-04-25T14:47:03;15.20;30.40
578;DHT22;275;48.492;9.214;2023-04-25T14:49:32;15.40;29.50
578;DHT22;275;48.492;9.214;2023-04-25T14:52:00;15.40;28.50
578;DHT22;275;48.492;9.214;2023-04-25T14:54:27;14.80;29.40
578;DHT22;275;48.492;9.214;2023-04-25T14:56:54;14.40;30.50
578;DHT22;275;48.492;9.214;2023-04-25T14:59:21;14.90;30.50
578;DHT22;275;48.492;9.214;2023-04-25T15:01:47;15.00;30.10
578;DHT22;275;48.492;9.214;2023-04-25T15:04:14;15.00;29.20
578;DHT22;275;48.492;9.214;2023-04-25T15:06:42;15.30;28.90
578;DHT22;275;48.492;9.214;2023-04-25T15:09:11;16.00;28.00
578;DHT22;275;48.492;9.214;2023-04-25T15:11:38;16.00;27.90
578;DHT22;275;48.492;9.214;2023-04-25T15:14:05;15.30;28.50
578;DHT22;275;48.492;9.214;2023-04-25T15:16:32;14.90;29.30
578;DHT22;275;48.492;9.214;2023-04-25T15:18:58;14.80;30.20
578;DHT22;275;48.492;9.214;2023-04-25T15:21:29;14.00;31.00
578;DHT22;275;48.492;9.214;2023-04-25T15:23:56;13.70;32.30
578;DHT22;275;48.492;9.214;2023-04-25T15:26:24;13.40;33.40
578;DHT22;275;48.492;9.214;2023-04-25T15:28:51;13.40;33.60
578;DHT22;275;48.492;9.214;2023-04-25T15:31:19;13.40;33.40
578;DHT22;275;48.492;9.214;2023-04-25T15:33:46;13.90;32.20
578;DHT22;275;48.492;9.214;2023-04-25T15:36:12;14.70;30.20
578;DHT22;275;48.492;9.214;2023-04-25T15:38:42;14.90;29.30
578;DHT22;275;48.492;9.214;2023-04-25T15:41:08;15.30;29.40
578;DHT22;275;48.492;9.214;2023-04-25T15:43:37;15.20;28.50
578;DHT22;275;48.492;9.214;2023-04-25T15:46:04;14.70;29.70
578;DHT22;275;48.492;9.214;2023-04-25T15:48:32;14.20;30.20
578;DHT22;275;48.492;9.214;2023-04-25T15:50:59;13.60;32.20
578;DHT22;275;48.492;9.214;2023-04-25T15:53:26;13.20;33.10
578;DHT22;275;48.492;9.214;2023-04-25T15:55:53;12.70;34.90
578;DHT22;275;48.492;9.214;2023-04-25T15:58:20;12.80;34.10
578;DHT22;275;48.492;9.214;2023-04-25T16:00:48;13.20;33.20
578;DHT22;275;48.492;9.214;2023-04-25T16:03:16;13.00;33.50
578;DHT22;275;48.492;9.214;2023-04-25T16:05:43;13.20;32.70
578;DHT22;275;48.492;9.214;2023-04-25T16:08:09;12.60;34.10
578;DHT22;275;48.492;9.214;2023-04-25T16:10:36;12.40;35.40
578;DHT22;275;48.492;9.214;2023-04-25T16:13:03;13.40;33.70
578;DHT22;275;48.492;9.214;2023-04-25T16:15:30;13.90;32.10
578;DHT22;275;48.492;9.214;2023-04-25T16:17:58;14.20;31.50
578;DHT22;275;48.492;9.214;2023-04-25T16:20:25;14.60;30.70
578;DHT22;275;48.492;9.214;2023-04-25T16:22:52;15.00;29.90
578;DHT22;275;48.492;9.214;2023-04-25T16:25:19;14.70;30.30
578;DHT22;275;48.492;9.214;2023-04-25T16:27:46;14.60;30.10
578;DHT22;275;48.492;9.214;2023-04-25T16:30:13;14.10;31.00
578;DHT22;275;48.492;9.214;2023-04-25T16:32:40;14.10;31.10
578;DHT22;275;48.492;9.214;2023-04-25T16:35:09;14.00;31.10
578;DHT22;275;48.492;9.214;2023-04-25T16:37:36;14.10;30.70
578;DHT22;275;48.492;9.214;2023-04-25T16:40:04;14.50;30.40